sensor_id;sensor_type;location;lat;lon;timestamp;temperature;humidity
4399;DHT22;2213;49.720;7.296;2023-05-10T00:01:58;14.20;99.90
4399;DHT22;2213;49.720;7.296;2023-05-10T00:04:29;14.20;99.90
4399;DHT22;2213;49.720;7.296;2023-05-10T00:06:57;14.10;99.90
4399;DHT22;2213;49.720;7.296;2023-05-10T00:09:26;14.10;99.90
4399;DHT22;2213;49.720;7.296;2023-05-10T00:11:55;14.10;99.90
4399;DHT22;2213;49.720;7.296;2023-05-10T00:14:25;14.10;99.90
4399;DHT22;2213;49.720;7.296;2023-05-10T00:16:54;14.10;99.90
4399;DHT22;2213;49.720;7.296;2023-05-10T00:19:22;14.10;99.90
4399;DHT22;2213;49.720;7.296;2023-05-10T00:21:52;14.20;99.90
4399;DHT22;2213;49.720;7.296;2023-05-10T00:24:20;14.10;99.90
4399;DHT22;2213;49.720;7.296;2023-05-10T00:26:49;14.20;99.90
4399;DHT22;2213;49.720;7.296;2023-05-10T00:29:17;14.10;99.90
4399;DHT22;2213;49.720;7.296;2023-05-10T00:31:46;14.10;99.90
4399;DHT22;2213;49.720;7.296;2023-05-10T00:34:15;14.10;99.90
4399;DHT22;2213;49.720;7.296;2023-05-10T00:36:43;14.10;99.90
4399;DHT22;2213;49.720;7.296;2023-05-10T00:39:13;14.10;99.90
4399;DHT22;2213;49.720;7.296;2023-05-10T00:41:42;14.10;99.90
4399;DHT22;2213;49.720;7.296;2023-05-10T00:44:10;14.00;99.90
4399;DHT22;2213;49.720;7.296;2023-05-10T00:46:39;14.10;99.90
4399;DHT22;2213;49.720;7.296;2023-05-10T00:49:07;14.10;99.90
4399;DHT22;2213;49.720;7.296;2023-05-10T00:51:36;14.00;99.90
4399;DHT22;2213;49.720;7.296;2023-05-10T00:54:05;14.00;99.90
4399;DHT22;2213;49.720;7.296;2023-05-10T00:56:36;14.00;99.90
4399;DHT22;2213;49.720;7.296;2023-05-10T00:59:05;14.00;99.90
4399;DHT22;2213;49.720;7.296;2023-05-10T01:01:35;14.00;99.90
4399;DHT22;2213;49.720;7.296;2023-05-10T01:04:04;14.10;99.90
4399;DHT22;2213;49.720;7.296;2023-05-10T01:06:33;14.00;99.90
4399;DHT22;2213;49.720;7.296;2023-05-10T01:09:02;14.00;99.90
4399;DHT22;2213;49.720;7.296;2023-05-10T01:11:33;14.00;99.90
4399;DHT22;2213;49.720;7.296;2023-05-10T01:14:05;14.00;99.90
4399;DHT22;2213;49.720;7.296;2023-05-10T01:16:38;14.00;99.90
4399;DHT22;2213;49.720;7.296;2023-05-10T01:19:15;14.00;99.90
4399;DHT22;2213;49.720;7.296;2023-05-10T01:21:54;14.00;99.90
4399;DHT22;2213;49.720;7.296;2023-05-10T01:28:19;13.90;99.90
4399;DHT22;2213;49.720;7.296;2023-05-10T01:31:14;13.90;99.90
4399;DHT22;2213;49.720;7.296;2023-05-10T01:33:57;13.90;99.90
4399;DHT22;2213;49.720;7.296;2023-05-10T01:36:32;13.80;99.90
4399;DHT22;2213;49.720;7.296;2023-05-10T01:39:12;13.80;99.90
4399;DHT22;2213;49.720;7.296;2023-05-10T01:41:51;13.80;99.90
4399;DHT22;2213;49.720;7.296;2023-05-10T01:44:31;13.80;99.90
4399;DHT22;2213;49.720;7.296;2023-05-10T01:47:07;13.80;99.90
4399;DHT22;2213;49.720;7.296;2023-05-10T01:49:43;13.80;99.90
4399;DHT22;2213;49.720;7.296;2023-05-10T01:52:18;13.80;99.90
4399;DHT22;2213;49.720;7.296;2023-05-10T01:54:58;13.80;99.90
4399;DHT22;2213;49.720;7.296;2023-05-10T01:57:33;13.80;99.90
4399;DHT22;2213;49.720;7.296;2023-05-10T02:00:04;13.80;99.90
4399;DHT22;2213;49.720;7.296;2023-05-10T02:02:38;13.70;99.90
4399;DHT22;2213;49.720;7.296;2023-05-10T02:05:12;13.70;99.90
4399;DHT22;2213;49.720;7.296;2023-05-10T02:07:43;13.70;99.90
4399;DHT22;2213;49.720;7.296;2023-05-10T02:10:15;13.70;99.90
4399;DHT22;2213;49.720;7.296;2023-05-10T02:12:49;13.60;99.90
4399;DHT22;2213;49.720;7.296;2023-05-10T02:15:22;13.60;99.90
4399;DHT22;2213;49.720;7.296;2023-05-10T02:17:55;13.60;99.90
4399;DHT22;2213;49.720;7.296;2023-05-10T02:20:27;13.50;99.90
4399;DHT22;2213;49.720;7.296;2023-05-10T02:23:00;13.50;99.90
4399;DHT22;2213;49.720;7.296;2023-05-10T02:25:32;13.50;99.90
4399;DHT22;2213;49.720;7.296;2023-05-10T02:28:03;13.50;99.90
4399;DHT22;2213;49.720;7.296;2023-05-10T02:30:34;13.40;99.90
4399;DHT22;2213;49.720;7.296;2023-05-10T02:33:04;13.30;99.90
4399;DHT22;2213;49.720;7.296;2023-05-10T02:35:36;13.30;99.90
4399;DHT22;2213;49.720;7.296;2023-05-10T02:38:06;13.30;99.90
4399;DHT22;2213;49.720;7.296;2023-05-10T02:40:37;13.30;99.90
4399;DHT22;2213;49.720;7.296;2023-05-10T02:43:12;13.20;99.90
4399;DHT22;2213;49.720;7.296;2023-05-10T02:45:47;13.20;99.90
4399;DHT22;2213;49.720;7.296;2023-05-10T02:48:16;13.20;99.90
4399;DHT22;2213;49.720;7.296;2023-05-10T02:50:46;13.10;99.90
4399;DHT22;2213;49.720;7.296;2023-05-10T02:53:22;13.10;99.90
4399;DHT22;2213;49.720;7.296;2023-05-10T02:56:01;13.00;99.90
4399;DHT22;2213;49.720;7.296;2023-05-10T02:58:34;13.00;99.90
4399;DHT22;2213;49.720;7.296;2023-05-10T03:01:03;13.00;99.90
4399;DHT22;2213;49.720;7.296;2023-05-10T03:03:31;13.00;99.90
4399;DHT22;2213;49.720;7.296;2023-05-10T03:06:02;12.90;99.90
4399;DHT22;2213;49.720;7.296;2023-05-10T03:08:33;12.80;99.90
4399;DHT22;2213;49.720;7.296;2023-05-10T03:11:16;12.80;99.90
4399;DHT22;2213;49.720;7.296;2023-05-10T03:14:07;12.80;99.90
4399;DHT22;2213;49.720;7.296;2023-05-10T03:16:45;12.70;99.90
4399;DHT22;2213;49.720;7.296;2023-05-10T03:19:19;12.70;99.90
4399;DHT22;2213;49.720;7.296;2023-05-10T03:21:55;12.70;99.90
4399;DHT22;2213;49.720;7.296;2023-05-10T03:24:28;12.70;99.90
4399;DHT22;2213;49.720;7.296;2023-05-10T03:27:00;12.60;99.90
4399;DHT22;2213;49.720;7.296;2023-05-10T03:29:31;12.60;99.90
4399;DHT22;2213;49.720;7.296;2023-05-10T03:32:01;12.60;99.90
4399;DHT22;2213;49.720;7.296;2023-05-10T03:34:30;12.60;99.90
4399;DHT22;2213;49.720;7.296;2023-05-10T03:37:01;12.50;99.90
4399;DHT22;2213;49.720;7.296;2023-05-10T03:39:29;12.60;99.90
4399;DHT22;2213;49.720;7.296;2023-05-10T03:41:58;12.60;99.90
4399;DHT22;2213;49.720;7.296;2023-05-10T03:44:29;12.60;99.90
4399;DHT22;2213;49.720;7.296;2023-05-10T03:47:00;12.60;99.90
4399;DHT22;2213;49.720;7.296;2023-05-10T03:49:29;12.60;99.90
4399;DHT22;2213;49.720;7.296;2023-05-10T03:51:57;12.60;99.90
4399;DHT22;2213;49.720;7.296;2023-05-10T03:54:28;12.60;99.90
4399;DHT22;2213;49.720;7.296;2023-05-10T03:56:56;12.60;99.90
4399;DHT22;2213;49.720;7.296;2023-05-10T03:59:25;12.60;99.90
4399;DHT22;2213;49.720;7.296;2023-05-10T04:01:53;12.60;99.90
4399;DHT22;2213;49.720;7.296;2023-05-10T04:04:22;12.60;99.90
4399;DHT22;2213;49.720;7.296;2023-05-10T04:06:52;12.60;99.90
4399;DHT22;2213;49.720;7.296;2023-05-10T04:09:20;12.60;99.90
4399;DHT22;2213;49.720;7.296;2023-05-10T04:11:50;12.60;99.90
4399;DHT22;2213;49.720;7.296;2023-05-10T04:14:20;12.70;99.90
4399;DHT22;2213;49.720;7.296;2023-05-10T04:16:49;12.70;99.90
4399;DHT22;2213;49.720;7.296;2023-05-10T04:19:17;12.70;99.90
4399;DHT22;2213;49.720;7.296;2023-05-10T04:21:46;12.70;99.90
4399;DHT22;2213;49.720;7.296;2023-05-10T04:24:14;12.70;99.90
4399;DHT22;2213;49.720;7.296;2023-05-10T04:26:43;12.70;99.90
4399;DHT22;2213;49.720;7.296;2023-05-10T04:29:13;12.70;99.90
4399;DHT22;2213;49.720;7.296;2023-05-10T04:31:42;12.70;99.90
4399;DHT22;2213;49.720;7.296;2023-05-10T04:34:10;12.70;99.90
4399;DHT22;2213;49.720;7.296;2023-05-10T04:36:39;12.70;99.90
4399;DHT22;2213;49.720;7.296;2023-05-10T04:39:08;12.70;99.90
4399;DHT22;2213;49.720;7.296;2023-05-10T04:41:38;12.80;99.90
4399;DHT22;2213;49.720;7.296;2023-05-10T04:44:08;12.80;99.90
4399;DHT22;2213;49.720;7.296;2023-05-10T04:46:38;12.80;99.90
4399;DHT22;2213;49.720;7.296;2023-05-10T04:49:07;12.80;99.90
4399;DHT22;2213;49.720;7.296;2023-05-10T04:51:36;12.80;99.90
4399;DHT22;2213;49.720;7.296;2023-05-10T04:54:04;12.80;99.90
4399;DHT22;2213;49.720;7.296;2023-05-10T04:56:33;12.80;99.90
4399;DHT22;2213;49.720;7.296;2023-05-10T04:59:02;12.80;99.90
4399;DHT22;2213;49.720;7.296;2023-05-10T05:01:30;12.80;99.90
4399;DHT22;2213;49.720;7.296;2023-05-10T05:04:00;12.80;99.90
4399;DHT22;2213;49.720;7.296;2023-05-10T05:06:30;12.80;99.90
4399;DHT22;2213;49.720;7.296;2023-05-10T05:08:59;12.90;99.90
4399;DHT22;2213;49.720;7.296;2023-05-10T05:11:28;12.90;99.90
4399;DHT22;2213;49.720;7.296;2023-05-10T05:13:57;12.90;99.90
4399;DHT22;2213;49.720;7.296;2023-05-10T05:16:27;12.90;99.90
4399;DHT22;2213;49.720;7.296;2023-05-10T05:18:59;12.90;99.90
4399;DHT22;2213;49.720;7.296;2023-05-10T05:21:28;12.90;99.90
4399;DHT22;2213;49.720;7.296;2023-05-10T05:23:58;13.00;99.90
4399;DHT22;2213;49.720;7.296;2023-05-10T05:26:27;12.90;99.90
4399;DHT22;2213;49.720;7.296;2023-05-10T05:28:57;12.90;99.90
4399;DHT22;2213;49.720;7.296;2023-05-10T05:31:25;13.00;99.90
4399;DHT22;2213;49.720;7.296;2023-05-10T05:33:54;13.00;99.90
4399;DHT22;2213;49.720;7.296;2023-05-10T05:36:24;13.00;99.90
4399;DHT22;2213;49.720;7.296;2023-05-10T05:38:52;13.00;99.90
4399;DHT22;2213;49.720;7.296;2023-05-10T05:41:21;13.00;99.90
4399;DHT22;2213;49.720;7.296;2023-05-10T05:43:50;13.00;99.90
4399;DHT22;2213;49.720;7.296;2023-05-10T05:46:19;13.00;99.90
4399;DHT22;2213;49.720;7.296;2023-05-10T05:48:48;13.10;99.90
4399;DHT22;2213;49.720;7.296;2023-05-10T05:51:17;13.10;99.90
4399;DHT22;2213;49.720;7.296;2023-05-10T05:53:47;13.10;99.90
4399;DHT22;2213;49.720;7.296;2023-05-10T05:56:15;13.20;99.90
4399;DHT22;2213;49.720;7.296;2023-05-10T05:58:44;13.20;99.90
4399;DHT22;2213;49.720;7.296;2023-05-10T06:01:14;13.20;99.90
4399;DHT22;2213;49.720;7.296;2023-05-10T06:03:43;13.20;99.90
4399;DHT22;2213;49.720;7.296;2023-05-10T06:06:11;13.30;99.90
4399;DHT22;2213;49.720;7.296;2023-05-10T06:08:40;13.40;99.90
4399;DHT22;2213;49.720;7.296;2023-05-10T06:11:10;13.40;99.90
4399;DHT22;2213;49.720;7.296;2023-05-10T06:13:39;13.50;99.90
4399;DHT22;2213;49.720;7.296;2023-05-10T06:16:09;13.50;99.90
4399;DHT22;2213;49.720;7.296;2023-05-10T06:18:38;13.50;99.90
4399;DHT22;2213;49.720;7.296;2023-05-10T06:21:06;13.50;99.90
4399;DHT22;2213;49.720;7.296;2023-05-10T06:23:36;13.60;99.90
4399;DHT22;2213;49.720;7.296;2023-05-10T06:26:05;13.60;99.90
4399;DHT22;2213;49.720;7.296;2023-05-10T06:28:35;13.60;99.90
4399;DHT22;2213;49.720;7.296;2023-05-10T06:31:05;13.70;99.90
4399;DHT22;2213;49.720;7.296;2023-05-10T06:33:34;13.60;99.90
4399;DHT22;2213;49.720;7.296;2023-05-10T06:36:03;13.70;99.90
4399;DHT22;2213;49.720;7.296;2023-05-10T06:38:31;13.80;99.90
4399;DHT22;2213;49.720;7.296;2023-05-10T06:41:00;13.80;99.90
4399;DHT22;2213;49.720;7.296;2023-05-10T06:43:29;13.90;99.90
4399;DHT22;2213;49.720;7.296;2023-05-10T06:46:00;13.80;99.90
4399;DHT22;2213;49.720;7.296;2023-05-10T06:48:29;13.90;99.90
4399;DHT22;2213;49.720;7.296;2023-05-10T06:50:58;13.90;99.90
4399;DHT22;2213;49.720;7.296;2023-05-10T06:53:26;14.00;99.90
4399;DHT22;2213;49.720;7.296;2023-05-10T06:55:55;14.00;99.90
4399;DHT22;2213;49.720;7.296;2023-05-10T06:58:25;14.10;99.90
4399;DHT22;2213;49.720;7.296;2023-05-10T07:00:54;14.00;99.90
4399;DHT22;2213;49.720;7.296;2023-05-10T07:03:31;14.10;99.90
4399;DHT22;2213;49.720;7.296;2023-05-10T07:06:00;14.20;99.90
4399;DHT22;2213;49.720;7.296;2023-05-10T07:08:31;14.20;99.90
4399;DHT22;2213;49.720;7.296;2023-05-10T07:11:00;14.20;99.90
4399;DHT22;2213;49.720;7.296;2023-05-10T07:13:30;14.10;99.90
4399;DHT22;2213;49.720;7.296;2023-05-10T07:15:59;14.10;99.90
4399;DHT22;2213;49.720;7.296;2023-05-10T07:18:30;14.20;99.90
4399;DHT22;2213;49.720;7.296;2023-05-10T07:20:59;14.20;99.90
4399;DHT22;2213;49.720;7.296;2023-05-10T07:23:28;14.20;99.90
4399;DHT22;2213;49.720;7.296;2023-05-10T07:25:57;14.30;99.90
4399;DHT22;2213;49.720;7.296;2023-05-10T07:28:26;14.40;99.90
4399;DHT22;2213;49.720;7.296;2023-05-10T07:30:54;14.40;99.90
4399;DHT22;2213;49.720;7.296;2023-05-10T07:33:23;14.40;99.90
4399;DHT22;2213;49.720;7.296;2023-05-10T07:35:54;14.50;99.90
4399;DHT22;2213;49.720;7.296;2023-05-10T07:38:22;14.40;99.90
4399;DHT22;2213;49.720;7.296;2023-05-10T07:40:51;14.40;99.90
4399;DHT22;2213;49.720;7.296;2023-05-10T07:43:20;14.40;99.90
4399;DHT22;2213;49.720;7.296;2023-05-10T07:45:49;14.50;99.90
4399;DHT22;2213;49.720;7.296;2023-05-10T07:48:22;14.60;99.90
4399;DHT22;2213;49.720;7.296;2023-05-10T07:50:50;14.60;99.90
4399;DHT22;2213;49.720;7.296;2023-05-10T07:53:20;14.60;99.90
4399;DHT22;2213;49.720;7.296;2023-05-10T07:55:50;14.60;99.90
4399;DHT22;2213;49.720;7.296;2023-05-10T07:58:19;14.70;99.90
4399;DHT22;2213;49.720;7.296;2023-05-10T08:00:48;14.60;99.90
4399;DHT22;2213;49.720;7.296;2023-05-10T08:03:16;14.60;99.90
4399;DHT22;2213;49.720;7.296;2023-05-10T08:05:45;14.70;99.90
4399;DHT22;2213;49.720;7.296;2023-05-10T08:08:14;14.60;99.90
4399;DHT22;2213;49.720;7.296;2023-05-10T08:10:44;14.60;99.90
4399;DHT22;2213;49.720;7.296;2023-05-10T08:13:14;14.60;99.90
4399;DHT22;2213;49.720;7.296;2023-05-10T08:15:42;14.50;99.90
4399;DHT22;2213;49.720;7.296;2023-05-10T08:18:11;14.50;99.90
4399;DHT22;2213;49.720;7.296;2023-05-10T08:20:40;14.50;99.90
4399;DHT22;2213;49.720;7.296;2023-05-10T08:23:09;14.60;99.90
4399;DHT22;2213;49.720;7.296;2023-05-10T08:25:38;14.60;99.90
4399;DHT22;2213;49.720;7.296;2023-05-10T08:28:08;14.60;99.90
4399;DHT22;2213;49.720;7.296;2023-05-10T08:30:37;14.60;99.90
4399;DHT22;2213;49.720;7.296;2023-05-10T08:33:06;14.70;99.90
4399;DHT22;2213;49.720;7.296;2023-05-10T08:35:36;14.60;99.90
4399;DHT22;2213;49.720;7.296;2023-05-10T08:38:04;14.60;99.90
4399;DHT22;2213;49.720;7.296;2023-05-10T08:40:33;14.50;99.90
4399;DHT22;2213;49.720;7.296;2023-05-10T08:43:05;14.40;99.90
4399;DHT22;2213;49.720;7.296;2023-05-10T08:45:38;14.40;99.90
4399;DHT22;2213;49.720;7.296;2023-05-10T08:48:09;14.30;99.90
4399;DHT22;2213;49.720;7.296;2023-05-10T08:50:40;14.40;99.90
4399;DHT22;2213;49.720;7.296;2023-05-10T08:53:11;14.40;99.90
4399;DHT22;2213;49.720;7.296;2023-05-10T08:55:41;14.40;99.90
4399;DHT22;2213;49.720;7.296;2023-05-10T08:58:12;14.40;99.90
4399;DHT22;2213;49.720;7.296;2023-05-10T09:00:40;14.30;99.90
4399;DHT22;2213;49.720;7.296;2023-05-10T09:03:09;14.30;99.90
4399;DHT22;2213;49.720;7.296;2023-05-10T09:05:38;14.30;99.90
4399;DHT22;2213;49.720;7.296;2023-05-10T09:08:08;14.40;99.90
4399;DHT22;2213;49.720;7.296;2023-05-10T09:10:37;14.40;99.90
4399;DHT22;2213;49.720;7.296;2023-05-10T09:13:09;14.40;99.90
4399;DHT22;2213;49.720;7.296;2023-05-10T09:15:40;14.40;99.90
4399;DHT22;2213;49.720;7.296;2023-05-10T09:18:09;14.50;99.90
4399;DHT22;2213;49.720;7.296;2023-05-10T09:20:38;14.70;99.90
4399;DHT22;2213;49.720;7.296;2023-05-10T09:23:08;14.60;99.90
4399;DHT22;2213;49.720;7.296;2023-05-10T09:25:36;14.60;99.90
4399;DHT22;2213;49.720;7.296;2023-05-10T09:28:06;14.70;99.90
4399;DHT22;2213;49.720;7.296;2023-05-10T09:30:38;14.80;99.90
4399;DHT22;2213;49.720;7.296;2023-05-10T09:33:07;14.80;99.90
4399;DHT22;2213;49.720;7.296;2023-05-10T09:35:35;14.70;99.90
4399;DHT22;2213;49.720;7.296;2023-05-10T09:38:07;14.80;99.90
4399;DHT22;2213;49.720;7.296;2023-05-10T09:40:37;14.80;99.90
4399;DHT22;2213;49.720;7.296;2023-05-10T09:43:07;14.90;99.90
4399;DHT22;2213;49.720;7.296;2023-05-10T09:45:37;14.80;99.90
4399;DHT22;2213;49.720;7.296;2023-05-10T09:48:09;14.90;99.90
4399;DHT22;2213;49.720;7.296;2023-05-10T09:50:38;15.00;99.90
4399;DHT22;2213;49.720;7.296;2023-05-10T09:53:07;15.00;99.90
4399;DHT22;2213;49.720;7.296;2023-05-10T09:55:40;14.90;99.90
4399;DHT22;2213;49.720;7.296;2023-05-10T09:58:11;14.80;99.90
4399;DHT22;2213;49.720;7.296;2023-05-10T10:00:44;14.70;99.90
4399;DHT22;2213;49.720;7.296;2023-05-10T10:03:16;14.70;99.90
4399;DHT22;2213;49.720;7.296;2023-05-10T10:05:49;14.70;99.90
4399;DHT22;2213;49.720;7.296;2023-05-10T10:08:18;14.70;99.90
4399;DHT22;2213;49.720;7.296;2023-05-10T10:10:47;14.70;99.90
4399;DHT22;2213;49.720;7.296;2023-05-10T10:13:19;14.70;99.90
4399;DHT22;2213;49.720;7.296;2023-05-10T10:15:49;14.60;99.90
4399;DHT22;2213;49.720;7.296;2023-05-10T10:18:19;14.80;99.90
4399;DHT22;2213;49.720;7.296;2023-05-10T10:20:54;14.80;99.90
4399;DHT22;2213;49.720;7.296;2023-05-10T10:23:24;14.70;99.90
4399;DHT22;2213;49.720;7.296;2023-05-10T10:25:53;14.90;99.90
4399;DHT22;2213;49.720;7.296;2023-05-10T10:28:30;14.90;99.90
4399;DHT22;2213;49.720;7.296;2023-05-10T10:31:15;14.80;99.90
4399;DHT22;2213;49.720;7.296;2023-05-10T10:34:00;14.90;99.90
4399;DHT22;2213;49.720;7.296;2023-05-10T10:36:40;14.90;99.90
4399;DHT22;2213;49.720;7.296;2023-05-10T10:39:11;14.80;99.90
4399;DHT22;2213;49.720;7.296;2023-05-10T10:41:49;14.90;99.90
4399;DHT22;2213;49.720;7.296;2023-05-10T10:44:40;14.90;99.90
4399;DHT22;2213;49.720;7.296;2023-05-10T10:47:22;15.00;99.90
4399;DHT22;2213;49.720;7.296;2023-05-10T10:50:03;15.00;99.90
4399;DHT22;2213;49.720;7.296;2023-05-10T10:52:34;15.00;99.90
4399;DHT22;2213;49.720;7.296;2023-05-10T10:55:06;15.00;99.90
4399;DHT22;2213;49.720;7.296;2023-05-10T10:57:48;15.10;99.90
4399;DHT22;2213;49.720;7.296;2023-05-10T11:00:21;15.20;99.90
4399;DHT22;2213;49.720;7.296;2023-05-10T11:02:57;15.20;99.90
4399;DHT22;2213;49.720;7.296;2023-05-10T11:05:45;15.30;99.90
4399;DHT22;2213;49.720;7.296;2023-05-10T11:08:18;15.30;99.90
4399;DHT22;2213;49.720;7.296;2023-05-10T11:11:05;15.40;99.90
4399;DHT22;2213;49.720;7.296;2023-05-10T11:13:41;15.50;99.90
4399;DHT22;2213;49.720;7.296;2023-05-10T11:16:15;15.40;99.90
4399;DHT22;2213;49.720;7.296;2023-05-10T11:18:58;15.30;99.90
4399;DHT22;2213;49.720;7.296;2023-05-10T11:21:29;15.40;99.90
4399;DHT22;2213;49.720;7.296;2023-05-10T11:24:01;15.40;99.90
4399;DHT22;2213;49.720;7.296;2023-05-10T11:26:35;15.50;99.90
4399;DHT22;2213;49.720;7.296;2023-05-10T11:29:04;15.50;99.90
4399;DHT22;2213;49.720;7.296;2023-05-10T11:31:32;15.50;99.90
4399;DHT22;2213;49.720;7.296;2023-05-10T11:34:03;15.60;99.90
4399;DHT22;2213;49.720;7.296;2023-05-10T11:36:34;15.70;99.90
4399;DHT22;2213;49.720;7.296;2023-05-10T11:39:04;15.70;99.90
4399;DHT22;2213;49.720;7.296;2023-05-10T11:41:34;15.70;99.90
4399;DHT22;2213;49.720;7.296;2023-05-10T11:44:04;15.70;99.90
4399;DHT22;2213;49.720;7.296;2023-05-10T11:46:32;15.80;99.90
4399;DHT22;2213;49.720;7.296;2023-05-10T11:49:02;15.70;99.90
4399;DHT22;2213;49.720;7.296;2023-05-10T11:51:34;15.70;99.90
4399;DHT22;2213;49.720;7.296;2023-05-10T11:54:07;15.70;99.90
4399;DHT22;2213;49.720;7.296;2023-05-10T11:56:36;15.80;99.90
4399;DHT22;2213;49.720;7.296;2023-05-10T11:59:06;15.80;99.90
4399;DHT22;2213;49.720;7.296;2023-05-10T12:01:36;15.80;99.90
4399;DHT22;2213;49.720;7.296;2023-05-10T12:04:06;15.70;99.90
4399;DHT22;2213;49.720;7.296;2023-05-10T12:06:39;15.90;99.90
4399;DHT22;2213;49.720;7.296;2023-05-10T12:09:08;15.90;99.90
4399;DHT22;2213;49.720;7.296;2023-05-10T12:11:38;15.80;99.90
4399;DHT22;2213;49.720;7.296;2023-05-10T12:14:10;16.00;99.90
4399;DHT22;2213;49.720;7.296;2023-05-10T12:16:39;16.10;99.90
4399;DHT22;2213;49.720;7.296;2023-05-10T12:19:10;16.10;99.90
4399;DHT22;2213;49.720;7.296;2023-05-10T12:21:39;15.90;99.90
4399;DHT22;2213;49.720;7.296;2023-05-10T12:24:08;16.10;99.90
4399;DHT22;2213;49.720;7.296;2023-05-10T12:26:38;16.10;99.90
4399;DHT22;2213;49.720;7.296;2023-05-10T12:29:13;16.20;99.90
4399;DHT22;2213;49.720;7.296;2023-05-10T12:31:51;16.00;99.90
4399;DHT22;2213;49.720;7.296;2023-05-10T12:34:29;16.10;99.90
4399;DHT22;2213;49.720;7.296;2023-05-10T12:37:00;16.10;99.90
4399;DHT22;2213;49.720;7.296;2023-05-10T12:39:39;16.00;99.90
4399;DHT22;2213;49.720;7.296;2023-05-10T12:42:09;16.00;99.90
4399;DHT22;2213;49.720;7.296;2023-05-10T12:44:38;16.00;99.90
4399;DHT22;2213;49.720;7.296;2023-05-10T12:47:07;15.90;99.90
4399;DHT22;2213;49.720;7.296;2023-05-10T12:49:37;16.00;99.90
4399;DHT22;2213;49.720;7.296;2023-05-10T12:52:06;16.00;99.90
4399;DHT22;2213;49.720;7.296;2023-05-10T12:54:35;16.00;99.90
4399;DHT22;2213;49.720;7.296;2023-05-10T12:57:04;15.80;99.90
4399;DHT22;2213;49.720;7.296;2023-05-10T12:59:32;15.80;99.90
4399;DHT22;2213;49.720;7.296;2023-05-10T13:02:03;15.70;99.90
4399;DHT22;2213;49.720;7.296;2023-05-10T13:04:32;15.80;99.90
4399;DHT22;2213;49.720;7.296;2023-05-10T13:07:02;15.90;99.90
4399;DHT22;2213;49.720;7.296;2023-05-10T13:09:31;15.90;99.90
4399;DHT22;2213;49.720;7.296;2023-05-10T13:11:59;16.00;99.90
4399;DHT22;2213;49.720;7.296;2023-05-10T13:14:29;16.00;99.90
4399;DHT22;2213;49.720;7.296;2023-05-10T13:16:59;16.00;99.90
4399;DHT22;2213;49.720;7.296;2023-05-10T13:19:27;15.90;99.90
4399;DHT22;2213;49.720;7.296;2023-05-10T13:21:56;16.00;99.90
4399;DHT22;2213;49.720;7.296;2023-05-10T13:24:27;16.10;99.90
4399;DHT22;2213;49.720;7.296;2023-05-10T13:26:56;16.20;99.90
4399;DHT22;2213;49.720;7.296;2023-05-10T13:29:24;16.10;99.90
4399;DHT22;2213;49.720;7.296;2023-05-10T13:31:53;16.20;99.90
4399;DHT22;2213;49.720;7.296;2023-05-10T13:34:21;16.50;99.90
4399;DHT22;2213;49.720;7.296;2023-05-10T13:36:51;16.70;99.90
4399;DHT22;2213;49.720;7.296;2023-05-10T13:39:20;16.60;99.90
4399;DHT22;2213;49.720;7.296;2023-05-10T13:41:50;16.70;99.90
4399;DHT22;2213;49.720;7.296;2023-05-10T13:44:21;16.80;99.90
4399;DHT22;2213;49.720;7.296;2023-05-10T13:46:51;16.90;99.90
4399;DHT22;2213;49.720;7.296;2023-05-10T13:49:19;16.80;99.90
4399;DHT22;2213;49.720;7.296;2023-05-10T13:51:48;16.90;99.90
4399;DHT22;2213;49.720;7.296;2023-05-10T13:54:17;16.90;99.90
4399;DHT22;2213;49.720;7.296;2023-05-10T13:56:47;17.00;99.90
4399;DHT22;2213;49.720;7.296;2023-05-10T13:59:17;17.00;99.90
4399;DHT22;2213;49.720;7.296;2023-05-10T14:01:46;17.00;99.90
4399;DHT22;2213;49.720;7.296;2023-05-10T14:04:14;16.90;99.90
4399;DHT22;2213;49.720;7.296;2023-05-10T14:06:43;16.90;99.90
4399;DHT22;2213;49.720;7.296;2023-05-10T14:09:11;16.90;99.90
4399;DHT22;2213;49.720;7.296;2023-05-10T14:11:40;17.00;99.90
4399;DHT22;2213;49.720;7.296;2023-05-10T14:14:10;17.10;99.90
4399;DHT22;2213;49.720;7.296;2023-05-10T14:16:43;17.10;99.90
4399;DHT22;2213;49.720;7.296;2023-05-10T14:19:12;17.30;99.90
4399;DHT22;2213;49.720;7.296;2023-05-10T14:21:41;17.40;99.90
4399;DHT22;2213;49.720;7.296;2023-05-10T14:24:10;17.40;99.90
4399;DHT22;2213;49.720;7.296;2023-05-10T14:26:39;17.60;99.90
4399;DHT22;2213;49.720;7.296;2023-05-10T14:29:08;17.60;99.90
4399;DHT22;2213;49.720;7.296;2023-05-10T14:31:41;17.70;99.80
4399;DHT22;2213;49.720;7.296;2023-05-10T14:34:11;17.60;99.50
4399;DHT22;2213;49.720;7.296;2023-05-10T14:36:39;17.70;99.80
4399;DHT22;2213;49.720;7.296;2023-05-10T14:39:08;17.70;99.50
4399;DHT22;2213;49.720;7.296;2023-05-10T14:41:39;17.60;99.90
4399;DHT22;2213;49.720;7.296;2023-05-10T14:44:10;17.70;99.90
4399;DHT22;2213;49.720;7.296;2023-05-10T14:46:39;17.80;99.90
4399;DHT22;2213;49.720;7.296;2023-05-10T14:49:09;17.80;99.70
4399;DHT22;2213;49.720;7.296;2023-05-10T14:51:38;17.80;98.90
4399;DHT22;2213;49.720;7.296;2023-05-10T14:54:07;17.90;99.40
4399;DHT22;2213;49.720;7.296;2023-05-10T14:56:35;18.10;98.20
4399;DHT22;2213;49.720;7.296;2023-05-10T14:59:04;18.20;97.10
4399;DHT22;2213;49.720;7.296;2023-05-10T15:01:33;18.20;97.30
4399;DHT22;2213;49.720;7.296;2023-05-10T15:04:05;18.30;96.80
4399;DHT22;2213;49.720;7.296;2023-05-10T15:06:36;18.20;96.90
4399;DHT22;2213;49.720;7.296;2023-05-10T15:09:05;18.00;96.70
4399;DHT22;2213;49.720;7.296;2023-05-10T15:11:33;18.00;96.80
4399;DHT22;2213;49.720;7.296;2023-05-10T15:14:03;17.90;96.90
4399;DHT22;2213;49.720;7.296;2023-05-10T15:16:31;18.00;96.70
4399;DHT22;2213;49.720;7.296;2023-05-10T15:19:02;18.00;97.10
4399;DHT22;2213;49.720;7.296;2023-05-10T15:21:31;17.90;96.90
4399;DHT22;2213;49.720;7.296;2023-05-10T15:24:06;17.90;96.70
4399;DHT22;2213;49.720;7.296;2023-05-10T15:26:35;17.80;96.50
4399;DHT22;2213;49.720;7.296;2023-05-10T15:29:04;17.80;96.90
4399;DHT22;2213;49.720;7.296;2023-05-10T15:31:32;17.80;96.50
4399;DHT22;2213;49.720;7.296;2023-05-10T15:34:02;17.70;96.60
4399;DHT22;2213;49.720;7.296;2023-05-10T15:36:31;17.70;97.40
4399;DHT22;2213;49.720;7.296;2023-05-10T15:39:00;17.80;97.50
4399;DHT22;2213;49.720;7.296;2023-05-10T15:41:31;17.70;97.10
4399;DHT22;2213;49.720;7.296;2023-05-10T15:43:59;17.80;97.00
4399;DHT22;2213;49.720;7.296;2023-05-10T15:46:28;17.70;96.70
4399;DHT22;2213;49.720;7.296;2023-05-10T15:48:57;17.80;96.80
4399;DHT22;2213;49.720;7.296;2023-05-10T15:51:26;17.70;96.80
4399;DHT22;2213;49.720;7.296;2023-05-10T15:53:54;17.80;96.80
4399;DHT22;2213;49.720;7.296;2023-05-10T15:56:35;17.90;96.80
4399;DHT22;2213;49.720;7.296;2023-05-10T15:59:04;17.90;97.10
4399;DHT22;2213;49.720;7.296;2023-05-10T16:01:34;17.80;97.00
4399;DHT22;2213;49.720;7.296;2023-05-10T16:04:03;17.80;97.10
4399;DHT22;2213;49.720;7.296;2023-05-10T16:06:31;17.80;97.10
4399;DHT22;2213;49.720;7.296;2023-05-10T16:09:00;17.60;96.80
4399;DHT22;2213;49.720;7.296;2023-05-10T16:11:29;17.50;97.10
4399;DHT22;2213;49.720;7.296;2023-05-10T16:13:58;17.60;97.30
4399;DHT22;2213;49.720;7.296;2023-05-10T16:16:27;17.50;97.60
4399;DHT22;2213;49.720;7.296;2023-05-10T16:18:57;17.60;98.30
4399;DHT22;2213;49.720;7.296;2023-05-10T16:21:27;17.50;97.90
4399;DHT22;2213;49.720;7.296;2023-05-10T16:23:57;17.50;98.30
4399;DHT22;2213;49.720;7.296;2023-05-10T16:26:26;17.40;98.50
4399;DHT22;2213;49.720;7.296;2023-05-10T16:28:55;17.40;98.90